International Virtual Aviation Organisation

Eastern Europe and Northern Asia MCD

 
ULAA 131930Z 20002MPS 140V250 CAVOK 08/02 Q1016 R26/CLRD70 NOSIG RMK QFE760/1014
QNH:(hPa/inHg/mmHg)1016 / 30 / 762
QFE:(hPa/inHg/mmHg)1014 / 29.93 / 760
Temperature8
Dew Point2
Visibility> 10000
WeatherCAVOK
Cloud Cover
Transition Height3000 m./10000 ft.
Transition LevelFL110
SQUAWK